sensor_id;sensor_type;location;lat;lon;timestamp;pressure;altitude;pressure_sealevel;temperature;humidity
39739;BME280;25422;48.286;8.484;2024-03-08T00:00:14;93787.69;;;-0.58;100.00
39739;BME280;25422;48.286;8.484;2024-03-08T00:02:41;93795.03;;;-0.65;100.00
39739;BME280;25422;48.286;8.484;2024-03-08T00:05:08;93795.34;;;-0.70;100.00
39739;BME280;25422;48.286;8.484;2024-03-08T00:07:35;93785.53;;;-0.76;100.00
39739;BME280;25422;48.286;8.484;2024-03-08T00:10:02;93779.19;;;-0.83;100.00
39739;BME280;25422;48.286;8.484;2024-03-08T00:12:27;93788.41;;;-0.80;100.00
39739;BME280;25422;48.286;8.484;2024-03-08T00:14:53;93781.81;;;-0.96;100.00
39739;BME280;25422;48.286;8.484;2024-03-08T00:17:20;93776.56;;;-0.94;100.00
39739;BME280;25422;48.286;8.484;2024-03-08T00:19:48;93775.00;;;-1.08;100.00
39739;BME280;25422;48.286;8.484;2024-03-08T00:22:15;93784.00;;;-1.03;100.00
39739;BME280;25422;48.286;8.484;2024-03-08T00:24:41;93770.56;;;-1.06;100.00
39739;BME280;25422;48.286;8.484;2024-03-08T00:27:06;93763.41;;;-1.14;100.00
39739;BME280;25422;48.286;8.484;2024-03-08T00:29:32;93773.00;;;-1.05;100.00
39739;BME280;25422;48.286;8.484;2024-03-08T00:31:57;93765.03;;;-1.13;100.00
39739;BME280;25422;48.286;8.484;2024-03-08T00:34:23;93770.91;;;-1.11;100.00
39739;BME280;25422;48.286;8.484;2024-03-08T00:36:48;93770.28;;;-1.14;100.00
39739;BME280;25422;48.286;8.484;2024-03-08T00:39:14;93763.84;;;-1.20;100.00
39739;BME280;25422;48.286;8.484;2024-03-08T00:41:39;93759.63;;;-1.21;100.00
39739;BME280;25422;48.286;8.484;2024-03-08T00:44:05;93755.41;;;-1.22;100.00
39739;BME280;25422;48.286;8.484;2024-03-08T00:46:30;93754.00;;;-1.26;100.00
39739;BME280;25422;48.286;8.484;2024-03-08T00:48:56;93751.44;;;-1.26;100.00
39739;BME280;25422;48.286;8.484;2024-03-08T00:51:22;93745.00;;;-1.32;100.00
39739;BME280;25422;48.286;8.484;2024-03-08T00:53:47;93748.81;;;-1.38;100.00
39739;BME280;25422;48.286;8.484;2024-03-08T00:56:13;93748.19;;;-1.41;100.00
39739;BME280;25422;48.286;8.484;2024-03-08T00:58:38;93737.13;;;-1.42;100.00
39739;BME280;25422;48.286;8.484;2024-03-08T01:01:04;93742.47;;;-1.45;100.00
39739;BME280;25422;48.286;8.484;2024-03-08T01:03:30;93738.28;;;-1.46;100.00
39739;BME280;25422;48.286;8.484;2024-03-08T01:06:00;93737.13;;;-1.42;100.00
39739;BME280;25422;48.286;8.484;2024-03-08T01:08:28;93736.13;;;-1.52;100.00
39739;BME280;25422;48.286;8.484;2024-03-08T01:10:53;93731.59;;;-1.48;100.00
39739;BME280;25422;48.286;8.484;2024-03-08T01:13:19;93735.72;;;-1.46;100.00
39739;BME280;25422;48.286;8.484;2024-03-08T01:15:45;93733.88;;;-1.44;100.00
39739;BME280;25422;48.286;8.484;2024-03-08T01:18:11;93725.31;;;-1.44;100.00
39739;BME280;25422;48.286;8.484;2024-03-08T01:20:36;93719.00;;;-1.51;100.00
39739;BME280;25422;48.286;8.484;2024-03-08T01:23:02;93714.09;;;-1.55;100.00
39739;BME280;25422;48.286;8.484;2024-03-08T01:25:28;93710.00;;;-1.57;100.00
39739;BME280;25422;48.286;8.484;2024-03-08T01:27:54;93706.94;;;-1.62;100.00
39739;BME280;25422;48.286;8.484;2024-03-08T01:30:19;93708.06;;;-1.66;100.00
39739;BME280;25422;48.286;8.484;2024-03-08T01:32:45;93701.72;;;-1.74;100.00
39739;BME280;25422;48.286;8.484;2024-03-08T01:35:10;93698.56;;;-1.77;100.00
39739;BME280;25422;48.286;8.484;2024-03-08T01:37:36;93698.97;;;-1.83;100.00
39739;BME280;25422;48.286;8.484;2024-03-08T01:40:02;93695.81;;;-1.87;100.00
39739;BME280;25422;48.286;8.484;2024-03-08T01:42:28;93698.56;;;-1.90;100.00
39739;BME280;25422;48.286;8.484;2024-03-08T01:44:54;93688.88;;;-1.98;100.00
39739;BME280;25422;48.286;8.484;2024-03-08T01:47:21;93680.97;;;-2.08;100.00
39739;BME280;25422;48.286;8.484;2024-03-08T01:49:49;93681.91;;;-2.09;100.00
39739;BME280;25422;48.286;8.484;2024-03-08T01:52:16;93678.13;;;-2.16;100.00
39739;BME280;25422;48.286;8.484;2024-03-08T01:54:44;93675.16;;;-2.10;100.00
39739;BME280;25422;48.286;8.484;2024-03-08T01:57:10;93671.47;;;-2.18;100.00
39739;BME280;25422;48.286;8.484;2024-03-08T01:59:36;93673.22;;;-2.19;100.00
39739;BME280;25422;48.286;8.484;2024-03-08T02:02:02;93668.41;;;-2.24;100.00
39739;BME280;25422;48.286;8.484;2024-03-08T02:04:30;93660.81;;;-2.25;100.00
39739;BME280;25422;48.286;8.484;2024-03-08T02:06:58;93651.00;;;-2.31;100.00
39739;BME280;25422;48.286;8.484;2024-03-08T02:09:24;93655.19;;;-2.30;100.00
39739;BME280;25422;48.286;8.484;2024-03-08T02:11:50;93644.34;;;-2.34;100.00
39739;BME280;25422;48.286;8.484;2024-03-08T02:14:17;93647.00;;;-2.35;100.00
39739;BME280;25422;48.286;8.484;2024-03-08T02:16:44;93640.66;;;-2.43;100.00
39739;BME280;25422;48.286;8.484;2024-03-08T02:19:09;93645.78;;;-2.43;100.00
39739;BME280;25422;48.286;8.484;2024-03-08T02:21:35;93643.53;;;-2.47;100.00
39739;BME280;25422;48.286;8.484;2024-03-08T02:24:01;93642.81;;;-2.49;100.00
39739;BME280;25422;48.286;8.484;2024-03-08T02:26:27;93638.28;;;-2.46;100.00
39739;BME280;25422;48.286;8.484;2024-03-08T02:28:52;93631.75;;;-2.50;100.00
39739;BME280;25422;48.286;8.484;2024-03-08T02:31:18;93638.63;;;-2.63;100.00
39739;BME280;25422;48.286;8.484;2024-03-08T02:33:43;93634.84;;;-2.71;100.00
39739;BME280;25422;48.286;8.484;2024-03-08T02:36:09;93630.63;;;-2.59;100.00
39739;BME280;25422;48.286;8.484;2024-03-08T02:38:34;93628.88;;;-2.58;100.00
39739;BME280;25422;48.286;8.484;2024-03-08T02:40:59;93629.63;;;-2.56;100.00
39739;BME280;25422;48.286;8.484;2024-03-08T02:43:25;93626.31;;;-2.58;100.00
39739;BME280;25422;48.286;8.484;2024-03-08T02:45:50;93632.19;;;-2.56;100.00
39739;BME280;25422;48.286;8.484;2024-03-08T02:48:18;93628.25;;;-2.49;100.00
39739;BME280;25422;48.286;8.484;2024-03-08T02:50:44;93622.13;;;-2.46;100.00
39739;BME280;25422;48.286;8.484;2024-03-08T02:53:10;93617.00;;;-2.46;100.00
39739;BME280;25422;48.286;8.484;2024-03-08T02:55:39;93609.19;;;-2.45;100.00
39739;BME280;25422;48.286;8.484;2024-03-08T02:58:06;93609.94;;;-2.43;100.00
39739;BME280;25422;48.286;8.484;2024-03-08T03:00:38;93617.19;;;-2.37;100.00
39739;BME280;25422;48.286;8.484;2024-03-08T03:03:04;93616.16;;;-2.34;100.00
39739;BME280;25422;48.286;8.484;2024-03-08T03:05:29;93611.41;;;-2.27;100.00
39739;BME280;25422;48.286;8.484;2024-03-08T03:07:56;93608.75;;;-2.26;100.00
39739;BME280;25422;48.286;8.484;2024-03-08T03:10:22;93605.66;;;-2.18;100.00
39739;BME280;25422;48.286;8.484;2024-03-08T03:12:48;93608.00;;;-2.15;100.00
39739;BME280;25422;48.286;8.484;2024-03-08T03:15:14;93597.63;;;-2.13;100.00
39739;BME280;25422;48.286;8.484;2024-03-08T03:17:45;93594.88;;;-2.10;100.00
39739;BME280;25422;48.286;8.484;2024-03-08T03:20:11;93595.25;;;-2.04;100.00
39739;BME280;25422;48.286;8.484;2024-03-08T03:22:47;93590.84;;;-2.01;100.00
39739;BME280;25422;48.286;8.484;2024-03-08T03:25:20;93595.75;;;-1.98;100.00
39739;BME280;25422;48.286;8.484;2024-03-08T03:27:54;93587.56;;;-2.04;100.00
39739;BME280;25422;48.286;8.484;2024-03-08T03:30:22;93588.50;;;-2.05;100.00
39739;BME280;25422;48.286;8.484;2024-03-08T03:32:49;93587.34;;;-2.00;100.00
39739;BME280;25422;48.286;8.484;2024-03-08T03:35:16;93593.69;;;-1.93;100.00
39739;BME280;25422;48.286;8.484;2024-03-08T03:37:42;93588.78;;;-1.96;100.00
39739;BME280;25422;48.286;8.484;2024-03-08T03:40:11;93591.91;;;-1.93;100.00
39739;BME280;25422;48.286;8.484;2024-03-08T03:42:37;93584.63;;;-1.86;100.00
39739;BME280;25422;48.286;8.484;2024-03-08T03:45:08;93586.88;;;-1.81;100.00
39739;BME280;25422;48.286;8.484;2024-03-08T03:47:35;93583.75;;;-1.74;100.00
39739;BME280;25422;48.286;8.484;2024-03-08T03:50:00;93585.19;;;-1.70;100.00
39739;BME280;25422;48.286;8.484;2024-03-08T03:52:27;93579.16;;;-1.57;100.00
39739;BME280;25422;48.286;8.484;2024-03-08T03:54:53;93571.34;;;-1.56;100.00
39739;BME280;25422;48.286;8.484;2024-03-08T03:57:18;93580.59;;;-1.42;100.00
39739;BME280;25422;48.286;8.484;2024-03-08T03:59:48;93582.72;;;-1.36;100.00
39739;BME280;25422;48.286;8.484;2024-03-08T04:02:13;93581.47;;;-1.30;100.00
39739;BME280;25422;48.286;8.484;2024-03-08T04:04:39;93574.69;;;-1.31;100.00
39739;BME280;25422;48.286;8.484;2024-03-08T04:07:04;93570.84;;;-1.25;100.00
39739;BME280;25422;48.286;8.484;2024-03-08T04:09:30;93568.75;;;-1.20;100.00
39739;BME280;25422;48.286;8.484;2024-03-08T04:11:55;93567.47;;;-1.14;100.00
39739;BME280;25422;48.286;8.484;2024-03-08T04:14:23;93567.38;;;-1.13;100.00
39739;BME280;25422;48.286;8.484;2024-03-08T04:16:48;93558.50;;;-1.09;100.00
39739;BME280;25422;48.286;8.484;2024-03-08T04:19:14;93560.94;;;-1.07;100.00
39739;BME280;25422;48.286;8.484;2024-03-08T04:21:39;93565.63;;;-1.01;100.00
39739;BME280;25422;48.286;8.484;2024-03-08T04:24:05;93562.47;;;-1.05;100.00
39739;BME280;25422;48.286;8.484;2024-03-08T04:26:31;93554.41;;;-1.11;100.00
39739;BME280;25422;48.286;8.484;2024-03-08T04:28:56;93559.47;;;-1.10;100.00
39739;BME280;25422;48.286;8.484;2024-03-08T04:31:22;93548.13;;;-1.07;100.00
39739;BME280;25422;48.286;8.484;2024-03-08T04:33:47;93557.56;;;-0.96;100.00
39739;BME280;25422;48.286;8.484;2024-03-08T04:36:13;93555.28;;;-0.88;100.00
39739;BME280;25422;48.286;8.484;2024-03-08T04:38:39;93553.88;;;-0.92;100.00
39739;BME280;25422;48.286;8.484;2024-03-08T04:41:06;93546.16;;;-0.92;100.00
39739;BME280;25422;48.286;8.484;2024-03-08T04:43:32;93544.28;;;-0.90;100.00
39739;BME280;25422;48.286;8.484;2024-03-08T04:45:57;93542.78;;;-0.93;100.00
39739;BME280;25422;48.286;8.484;2024-03-08T04:48:23;93548.63;;;-0.79;100.00
39739;BME280;25422;48.286;8.484;2024-03-08T04:50:52;93534.38;;;-0.83;100.00
39739;BME280;25422;48.286;8.484;2024-03-08T04:53:19;93542.88;;;-0.83;100.00
39739;BME280;25422;48.286;8.484;2024-03-08T04:55:44;93532.16;;;-0.88;100.00
39739;BME280;25422;48.286;8.484;2024-03-08T04:58:10;93536.13;;;-0.84;100.00
39739;BME280;25422;48.286;8.484;2024-03-08T05:00:35;93539.88;;;-0.77;100.00
39739;BME280;25422;48.286;8.484;2024-03-08T05:03:00;93544.41;;;-0.80;100.00
39739;BME280;25422;48.286;8.484;2024-03-08T05:05:26;93540.78;;;-0.78;100.00
39739;BME280;25422;48.286;8.484;2024-03-08T05:07:53;93539.28;;;-0.92;100.00
39739;BME280;25422;48.286;8.484;2024-03-08T05:10:19;93538.00;;;-0.86;100.00
39739;BME280;25422;48.286;8.484;2024-03-08T05:12:44;93533.53;;;-0.95;100.00
39739;BME280;25422;48.286;8.484;2024-03-08T05:15:10;93546.84;;;-0.90;100.00
39739;BME280;25422;48.286;8.484;2024-03-08T05:17:35;93533.34;;;-0.92;100.00
39739;BME280;25422;48.286;8.484;2024-03-08T05:20:01;93527.59;;;-0.96;100.00
39739;BME280;25422;48.286;8.484;2024-03-08T05:22:26;93526.31;;;-0.90;100.00
39739;BME280;25422;48.286;8.484;2024-03-08T05:24:52;93529.69;;;-0.90;100.00
39739;BME280;25422;48.286;8.484;2024-03-08T05:27:17;93524.78;;;-0.93;100.00
39739;BME280;25422;48.286;8.484;2024-03-08T05:29:43;93527.13;;;-0.90;100.00
39739;BME280;25422;48.286;8.484;2024-03-08T05:32:08;93521.97;;;-0.90;100.00
39739;BME280;25422;48.286;8.484;2024-03-08T05:34:35;93520.81;;;-0.97;100.00
39739;BME280;25422;48.286;8.484;2024-03-08T05:37:00;93526.31;;;-0.90;100.00
39739;BME280;25422;48.286;8.484;2024-03-08T05:39:26;93524.09;;;-0.95;100.00
39739;BME280;25422;48.286;8.484;2024-03-08T05:41:52;93527.25;;;-1.03;100.00
39739;BME280;25422;48.286;8.484;2024-03-08T05:44:18;93528.88;;;-1.02;100.00
39739;BME280;25422;48.286;8.484;2024-03-08T05:46:43;93528.41;;;-0.95;100.00
39739;BME280;25422;48.286;8.484;2024-03-08T05:49:09;93517.56;;;-0.88;100.00
39739;BME280;25422;48.286;8.484;2024-03-08T05:51:37;93518.38;;;-0.87;100.00
39739;BME280;25422;48.286;8.484;2024-03-08T05:54:04;93521.19;;;-0.90;100.00
39739;BME280;25422;48.286;8.484;2024-03-08T05:56:33;93521.97;;;-0.90;100.00
39739;BME280;25422;48.286;8.484;2024-03-08T05:58:59;93523.63;;;-0.89;100.00
39739;BME280;25422;48.286;8.484;2024-03-08T06:01:26;93521.78;;;-0.87;100.00
39739;BME280;25422;48.286;8.484;2024-03-08T06:03:52;93519.09;;;-0.85;100.00
39739;BME280;25422;48.286;8.484;2024-03-08T06:06:20;93519.31;;;-0.99;100.00
39739;BME280;25422;48.286;8.484;2024-03-08T06:08:47;93516.84;;;-0.90;100.00
39739;BME280;25422;48.286;8.484;2024-03-08T06:11:14;93516.63;;;-0.87;100.00
39739;BME280;25422;48.286;8.484;2024-03-08T06:13:40;93515.47;;;-0.82;100.00
39739;BME280;25422;48.286;8.484;2024-03-08T06:16:05;93525.13;;;-0.75;100.00
39739;BME280;25422;48.286;8.484;2024-03-08T06:18:34;93521.28;;;-0.80;100.00
39739;BME280;25422;48.286;8.484;2024-03-08T06:21:08;93518.59;;;-0.79;100.00
39739;BME280;25422;48.286;8.484;2024-03-08T06:23:37;93515.34;;;-0.81;100.00
39739;BME280;25422;48.286;8.484;2024-03-08T06:26:05;93526.53;;;-0.71;100.00
39739;BME280;25422;48.286;8.484;2024-03-08T06:28:31;93516.50;;;-0.74;100.00
39739;BME280;25422;48.286;8.484;2024-03-08T06:31:03;93522.56;;;-0.63;100.00
39739;BME280;25422;48.286;8.484;2024-03-08T06:33:29;93523.72;;;-0.79;100.00
39739;BME280;25422;48.286;8.484;2024-03-08T06:35:55;93516.50;;;-0.74;100.00
39739;BME280;25422;48.286;8.484;2024-03-08T06:38:26;93523.88;;;-0.69;100.00
39739;BME280;25422;48.286;8.484;2024-03-08T06:40:52;93519.44;;;-0.78;100.00
39739;BME280;25422;48.286;8.484;2024-03-08T06:43:18;93516.16;;;-0.80;100.00
39739;BME280;25422;48.286;8.484;2024-03-08T06:45:46;93516.88;;;-0.78;100.00
39739;BME280;25422;48.286;8.484;2024-03-08T06:48:18;93521.75;;;-0.64;100.00
39739;BME280;25422;48.286;8.484;2024-03-08T06:50:44;93513.44;;;-0.56;100.00
39739;BME280;25422;48.286;8.484;2024-03-08T06:53:10;93511.00;;;-0.58;100.00
39739;BME280;25422;48.286;8.484;2024-03-08T06:55:36;93510.41;;;-0.61;100.00
39739;BME280;25422;48.286;8.484;2024-03-08T06:58:02;93513.69;;;-0.59;100.00
39739;BME280;25422;48.286;8.484;2024-03-08T07:00:27;93517.09;;;-0.70;100.00
39739;BME280;25422;48.286;8.484;2024-03-08T07:02:56;93516.50;;;-0.62;100.00
39739;BME280;25422;48.286;8.484;2024-03-08T07:05:22;93508.78;;;-0.51;100.00
39739;BME280;25422;48.286;8.484;2024-03-08T07:07:49;93522.47;;;-0.62;100.00
39739;BME280;25422;48.286;8.484;2024-03-08T07:10:16;93508.69;;;-0.61;100.00
39739;BME280;25422;48.286;8.484;2024-03-08T07:12:42;93520.59;;;-0.71;100.00
39739;BME280;25422;48.286;8.484;2024-03-08T07:15:08;93503.66;;;-0.62;100.00
39739;BME280;25422;48.286;8.484;2024-03-08T07:17:39;93510.19;;;-0.58;100.00
39739;BME280;25422;48.286;8.484;2024-03-08T07:20:06;93499.94;;;-0.81;100.00
39739;BME280;25422;48.286;8.484;2024-03-08T07:22:36;93494.91;;;-0.71;100.00
39739;BME280;25422;48.286;8.484;2024-03-08T07:25:02;93504.25;;;-0.70;100.00
39739;BME280;25422;48.286;8.484;2024-03-08T07:27:48;93496.31;;;-0.67;100.00
39739;BME280;25422;48.286;8.484;2024-03-08T07:30:14;93499.00;;;-0.80;100.00
39739;BME280;25422;48.286;8.484;2024-03-08T07:33:02;93501.78;;;-0.83;100.00
39739;BME280;25422;48.286;8.484;2024-03-08T07:35:28;93495.97;;;-0.85;100.00
39739;BME280;25422;48.286;8.484;2024-03-08T07:37:54;93498.19;;;-0.69;100.00
39739;BME280;25422;48.286;8.484;2024-03-08T07:40:21;93493.94;;;-0.59;100.00
39739;BME280;25422;48.286;8.484;2024-03-08T07:42:46;93479.38;;;-0.81;100.00
39739;BME280;25422;48.286;8.484;2024-03-08T07:45:12;93498.88;;;-0.78;100.00
39739;BME280;25422;48.286;8.484;2024-03-08T07:47:38;93490.56;;;-0.71;100.00
39739;BME280;25422;48.286;8.484;2024-03-08T07:50:04;93495.00;;;-0.61;100.00
39739;BME280;25422;48.286;8.484;2024-03-08T07:52:29;93499.34;;;-0.62;100.00
39739;BME280;25422;48.286;8.484;2024-03-08T07:54:55;93495.00;;;-0.61;100.00
39739;BME280;25422;48.286;8.484;2024-03-08T07:57:20;93491.50;;;-0.60;100.00
39739;BME280;25422;48.286;8.484;2024-03-08T07:59:46;93488.47;;;-0.65;100.00
39739;BME280;25422;48.286;8.484;2024-03-08T08:02:11;93493.16;;;-0.59;100.00
39739;BME280;25422;48.286;8.484;2024-03-08T08:04:37;93485.56;;;-0.61;100.00
39739;BME280;25422;48.286;8.484;2024-03-08T08:07:04;93488.09;;;-0.49;100.00
39739;BME280;25422;48.286;8.484;2024-03-08T08:09:29;93490.00;;;-0.52;100.00
39739;BME280;25422;48.286;8.484;2024-03-08T08:12:00;93484.69;;;-0.39;100.00
39739;BME280;25422;48.286;8.484;2024-03-08T08:14:29;93481.41;;;-0.29;100.00
39739;BME280;25422;48.286;8.484;2024-03-08T08:16:55;93481.88;;;-0.24;100.00
39739;BME280;25422;48.286;8.484;2024-03-08T08:19:22;93484.63;;;-0.16;100.00
39739;BME280;25422;48.286;8.484;2024-03-08T08:21:48;93471.56;;;-0.24;100.00
39739;BME280;25422;48.286;8.484;2024-03-08T08:24:14;93481.41;;;-0.41;100.00
39739;BME280;25422;48.286;8.484;2024-03-08T08:26:40;93471.00;;;-0.28;100.00
39739;BME280;25422;48.286;8.484;2024-03-08T08:29:06;93482.34;;;-0.30;100.00
39739;BME280;25422;48.286;8.484;2024-03-08T08:31:32;93478.38;;;-0.35;100.00
39739;BME280;25422;48.286;8.484;2024-03-08T08:33:58;93477.78;;;-0.27;100.00
39739;BME280;25422;48.286;8.484;2024-03-08T08:36:24;93471.53;;;-0.13;100.00
39739;BME280;25422;48.286;8.484;2024-03-08T08:38:49;93468.47;;;-0.07;100.00
39739;BME280;25422;48.286;8.484;2024-03-08T08:41:15;93467.16;;;-0.01;100.00
39739;BME280;25422;48.286;8.484;2024-03-08T08:43:42;93463.53;;;0.02;100.00
39739;BME280;25422;48.286;8.484;2024-03-08T08:46:10;93466.53;;;0.07;100.00
39739;BME280;25422;48.286;8.484;2024-03-08T08:48:41;93467.50;;;0.06;100.00
39739;BME280;25422;48.286;8.484;2024-03-08T08:51:09;93469.41;;;-0.08;100.00
39739;BME280;25422;48.286;8.484;2024-03-08T08:53:38;93464.53;;;0.10;100.00
39739;BME280;25422;48.286;8.484;2024-03-08T08:56:06;93473.50;;;0.16;100.00
39739;BME280;25422;48.286;8.484;2024-03-08T08:58:33;93467.50;;;0.06;100.00
39739;BME280;25422;48.286;8.484;2024-03-08T09:00:59;93470.31;;;0.24;100.00
39739;BME280;25422;48.286;8.484;2024-03-08T09:03:25;93464.66;;;0.09;100.00
39739;BME280;25422;48.286;8.484;2024-03-08T09:05:52;93471.31;;;0.11;100.00
39739;BME280;25422;48.286;8.484;2024-03-08T09:08:18;93465.38;;;0.32;100.00
39739;BME280;25422;48.286;8.484;2024-03-08T09:10:43;93457.75;;;0.52;100.00
39739;BME280;25422;48.286;8.484;2024-03-08T09:13:09;93463.63;;;0.54;100.00
39739;BME280;25422;48.286;8.484;2024-03-08T09:15:35;93463.00;;;0.61;100.00
39739;BME280;25422;48.286;8.484;2024-03-08T09:18:01;93452.41;;;0.86;100.00
39739;BME280;25422;48.286;8.484;2024-03-08T09:20:27;93461.66;;;0.67;100.00
39739;BME280;25422;48.286;8.484;2024-03-08T09:22:53;93461.66;;;0.46;100.00
39739;BME280;25422;48.286;8.484;2024-03-08T09:25:20;93451.22;;;0.69;100.00
39739;BME280;25422;48.286;8.484;2024-03-08T09:27:45;93453.72;;;0.49;100.00
39739;BME280;25422;48.286;8.484;2024-03-08T09:30:11;93453.63;;;0.60;100.00
39739;BME280;25422;48.286;8.484;2024-03-08T09:32:38;93444.25;;;0.80;100.00
39739;BME280;25422;48.286;8.484;2024-03-08T09:35:04;93440.94;;;0.69;100.00
39739;BME280;25422;48.286;8.484;2024-03-08T09:37:32;93446.81;;;0.80;100.00
39739;BME280;25422;48.286;8.484;2024-03-08T09:39:59;93434.75;;;1.22;100.00
39739;BME280;25422;48.286;8.484;2024-03-08T09:42:24;93435.63;;;1.42;100.00
39739;BME280;25422;48.286;8.484;2024-03-08T09:44:50;93432.16;;;1.72;100.00
39739;BME280;25422;48.286;8.484;2024-03-08T09:47:17;93431.91;;;1.85;100.00
39739;BME280;25422;48.286;8.484;2024-03-08T09:49:43;93436.44;;;1.32;100.00
39739;BME280;25422;48.286;8.484;2024-03-08T09:52:09;93440.00;;;1.41;100.00
39739;BME280;25422;48.286;8.484;2024-03-08T09:54:35;93435.34;;;1.25;100.00
39739;BME280;25422;48.286;8.484;2024-03-08T09:57:05;93430.44;;;1.22;100.00
39739;BME280;25422;48.286;8.484;2024-03-08T09:59:33;93430.06;;;1.46;100.00
39739;BME280;25422;48.286;8.484;2024-03-08T10:02:01;93419.94;;;1.64;100.00
39739;BME280;25422;48.286;8.484;2024-03-08T10:04:28;93418.75;;;1.18;100.00
39739;BME280;25422;48.286;8.484;2024-03-08T10:06:57;93418.53;;;1.31;100.00
39739;BME280;25422;48.286;8.484;2024-03-08T10:09:24;93413.00;;;1.55;100.00
39739;BME280;25422;48.286;8.484;2024-03-08T10:11:58;93414.78;;;1.84;100.00
39739;BME280;25422;48.286;8.484;2024-03-08T10:14:25;93413.69;;;1.96;100.00
39739;BME280;25422;48.286;8.484;2024-03-08T10:16:52;93419.56;;;1.98;100.00
39739;BME280;25422;48.286;8.484;2024-03-08T10:19:17;93404.97;;;2.36;100.00
39739;BME280;25422;48.286;8.484;2024-03-08T10:21:50;93401.72;;;2.44;100.00
39739;BME280;25422;48.286;8.484;2024-03-08T10:24:17;93401.59;;;2.74;100.00
39739;BME280;25422;48.286;8.484;2024-03-08T10:26:42;93396.94;;;2.87;100.00
39739;BME280;25422;48.286;8.484;2024-03-08T10:29:09;93402.22;;;2.48;100.00
39739;BME280;25422;48.286;8.484;2024-03-08T10:31:35;93398.50;;;2.70;100.00
39739;BME280;25422;48.286;8.484;2024-03-08T10:34:01;93395.97;;;2.50;100.00
39739;BME280;25422;48.286;8.484;2024-03-08T10:36:28;93392.81;;;2.94;100.00
39739;BME280;25422;48.286;8.484;2024-03-08T10:38:53;93383.94;;;2.79;100.00
39739;BME280;25422;48.286;8.484;2024-03-08T10:41:24;93381.06;;;2.82;100.00
39739;BME280;25422;48.286;8.484;2024-03-08T10:49:00;93384.69;;;3.45;100.00
39739;BME280;25422;48.286;8.484;2024-03-08T10:51:30;93390.44;;;3.38;100.00
39739;BME280;25422;48.286;8.484;2024-03-08T10:54:06;93384.78;;;3.25;100.00
39739;BME280;25422;48.286;8.484;2024-03-08T10:57:13;93383.88;;;3.44;100.00
39739;BME280;25422;48.286;8.484;2024-03-08T10:59:39;93385.31;;;3.75;100.00
39739;BME280;25422;48.286;8.484;2024-03-08T11:02:05;93382.88;;;3.91;100.00
39739;BME280;25422;48.286;8.484;2024-03-08T11:04:31;93371.88;;;4.33;100.00
39739;BME280;25422;48.286;8.484;2024-03-08T11:07:02;93375.72;;;4.55;100.00
39739;BME280;25422;48.286;8.484;2024-03-08T11:09:38;93367.66;;;4.32;100.00
39739;BME280;25422;48.286;8.484;2024-03-08T11:12:28;93378.22;;;4.39;100.00
39739;BME280;25422;48.286;8.484;2024-03-08T11:15:01;93371.81;;;4.25;100.00
39739;BME280;25422;48.286;8.484;2024-03-08T11:19:58;93362.56;;;4.49;100.00
39739;BME280;25422;48.286;8.484;2024-03-08T11:22:32;93360.44;;;4.44;100.00
39739;BME280;25422;48.286;8.484;2024-03-08T11:25:02;93363.44;;;4.92;100.00
39739;BME280;25422;48.286;8.484;2024-03-08T11:27:29;93359.97;;;5.10;100.00
39739;BME280;25422;48.286;8.484;2024-03-08T11:30:03;93356.69;;;5.50;100.00
39739;BME280;25422;48.286;8.484;2024-03-08T11:32:35;93355.03;;;4.90;100.00
39739;BME280;25422;48.286;8.484;2024-03-08T11:35:00;93346.47;;;4.63;100.00
39739;BME280;25422;48.286;8.484;2024-03-08T11:37:33;93352.84;;;5.12;100.00
39739;BME280;25422;48.286;8.484;2024-03-08T11:40:00;93348.75;;;5.60;100.00
39739;BME280;25422;48.286;8.484;2024-03-08T11:42:26;93336.47;;;6.20;100.00
39739;BME280;25422;48.286;8.484;2024-03-08T11:44:52;93342.44;;;5.79;100.00
39739;BME280;25422;48.286;8.484;2024-03-08T11:47:19;93336.81;;;6.00;100.00
39739;BME280;25422;48.286;8.484;2024-03-08T11:49:45;93329.50;;;6.93;100.00
39739;BME280;25422;48.286;8.484;2024-03-08T11:52:14;93326.31;;;7.54;100.00
39739;BME280;25422;48.286;8.484;2024-03-08T11:54:47;93320.28;;;8.61;100.00
39739;BME280;25422;48.286;8.484;2024-03-08T11:57:18;93320.78;;;8.03;95.25
39739;BME280;25422;48.286;8.484;2024-03-08T11:59:50;93316.94;;;8.14;100.00
39739;BME280;25422;48.286;8.484;2024-03-08T12:02:15;93319.16;;;8.02;100.00
39739;BME280;25422;48.286;8.484;2024-03-08T12:04:41;93319.13;;;9.82;87.60
39739;BME280;25422;48.286;8.484;2024-03-08T12:07:09;93312.97;;;11.31;74.67
39739;BME280;25422;48.286;8.484;2024-03-08T12:09:35;93304.72;;;10.57;75.53
39739;BME280;25422;48.286;8.484;2024-03-08T12:12:02;93304.03;;;10.20;80.97
39739;BME280;25422;48.286;8.484;2024-03-08T12:14:30;93305.03;;;9.98;85.34
39739;BME280;25422;48.286;8.484;2024-03-08T12:16:55;93302.22;;;11.12;74.80
39739;BME280;25422;48.286;8.484;2024-03-08T12:19:21;93295.00;;;11.21;73.75
39739;BME280;25422;48.286;8.484;2024-03-08T12:21:46;93286.66;;;10.12;76.92
39739;BME280;25422;48.286;8.484;2024-03-08T12:24:17;93276.84;;;11.13;75.73
39739;BME280;25422;48.286;8.484;2024-03-08T12:26:47;93272.91;;;10.54;81.88
39739;BME280;25422;48.286;8.484;2024-03-08T12:29:24;93270.97;;;10.12;79.91
39739;BME280;25422;48.286;8.484;2024-03-08T12:31:58;93263.56;;;11.14;69.16
39739;BME280;25422;48.286;8.484;2024-03-08T12:34:24;93259.53;;;11.12;75.91
39739;BME280;25422;48.286;8.484;2024-03-08T12:36:50;93252.88;;;11.85;68.43
39739;BME280;25422;48.286;8.484;2024-03-08T12:39:20;93264.16;;;11.85;69.31
39739;BME280;25422;48.286;8.484;2024-03-08T12:41:53;93256.09;;;11.67;69.76
39739;BME280;25422;48.286;8.484;2024-03-08T12:44:19;93254.25;;;11.67;68.20
39739;BME280;25422;48.286;8.484;2024-03-08T12:46:47;93249.94;;;11.26;69.78
39739;BME280;25422;48.286;8.484;2024-03-08T12:49:13;93245.06;;;11.98;69.62
39739;BME280;25422;48.286;8.484;2024-03-08T12:51:43;93238.16;;;11.77;67.37
39739;BME280;25422;48.286;8.484;2024-03-08T12:54:09;93239.38;;;11.88;65.56
39739;BME280;25422;48.286;8.484;2024-03-08T12:56:35;93244.28;;;11.29;70.69
39739;BME280;25422;48.286;8.484;2024-03-08T12:59:04;93231.13;;;12.24;68.98